Melody — 3FBS7 — position and weather

sailwx.info

Track history (hours):
 
Tides and Currents Weather Stations Pressure Air Temp Water Temp Dewpoint Dewpoint Depression Visibility Wind Speed Wind Dir Waves Ship Positions

Melody

Operator: Mediterranean Shipping Company

Last reported at 2017-May-04 20:16 UTC. Time now 2017-May-29 16:57 UTC.
Position N 29°22' W 094°48'.
Warning: this ship's position is 24 days out of date.

Length 225 m; draft 11.8 m.

Type: Tanker. MMSI: 371669000.

Date/timePositionNaut miles runAvg speedWind from/ knotsBaromVisibWave heightAir tempDewpointWater temp
2017-May-04 20:16N 29°22' W 094°48'311.4
2017-May-04 20:00N 29°25' W 094°49'510.4
2017-May-04 19:30N 29°30' W 094°52'510.4
2017-May-04 19:00N 29°34' W 094°55'5 9.6
2017-May-04 18:30N 29°38' W 094°58'4 8.8
2017-May-04 18:00N 29°42' W 095°00'3 6.5
2017-May-04 17:30N 29°44' W 095°03'3 5.3
2017-May-04 17:00N 29°45' W 095°06'2 0.0
2017-May-02 20:43N 29°44' W 095°08'0 0.0
2017-May-02 20:30N 29°44' W 095°08'1 2.2
2017-May-02 19:59N 29°45' W 095°06'2 4.8
2017-May-02 19:29N 29°45' W 095°04'3 7.1
2017-May-02 19:00N 29°42' W 095°01'510.8
2017-May-02 18:30N 29°38' W 094°58'612.6
2017-May-02 18:00N 29°32' W 094°54'714.3
2017-May-02 17:30N 29°26' W 094°50'714.1
2017-May-02 17:00N 29°21' W 094°44'8 0.5
2017-May-02 01:35N 29°19' W 094°35'0 0.2
2017-May-02 01:29N 29°19' W 094°35'  
Track history (hours):
 
Tides and Currents Weather Stations Pressure Air Temp Water Temp Dewpoint Dewpoint Depression Visibility Wind Speed Wind Dir Waves Ship Positions

Melody

Operator: Mediterranean Shipping Company

Last reported at 2017-May-04 20:16 UTC. Time now 2017-May-29 16:57 UTC.
Position N 29°22' W 094°48'.
Warning: this ship's position is 24 days out of date.

Length 225 m; draft 11.8 m.

Type: Tanker. MMSI: 371669000.

Date/timePositionNaut miles runAvg speedWind from/ knotsBaromVisibWave heightAir tempDewpointWater temp
2017-May-04 20:16N 29°22' W 094°48'311.4
2017-May-04 20:00N 29°25' W 094°49'510.4
2017-May-04 19:30N 29°30' W 094°52'510.4
2017-May-04 19:00N 29°34' W 094°55'5 9.6
2017-May-04 18:30N 29°38' W 094°58'4 8.8
2017-May-04 18:00N 29°42' W 095°00'3 6.5
2017-May-04 17:30N 29°44' W 095°03'3 5.3
2017-May-04 17:00N 29°45' W 095°06'2 0.0
2017-May-02 20:43N 29°44' W 095°08'0 0.0
2017-May-02 20:30N 29°44' W 095°08'1 2.2
2017-May-02 19:59N 29°45' W 095°06'2 4.8
2017-May-02 19:29N 29°45' W 095°04'3 7.1
2017-May-02 19:00N 29°42' W 095°01'510.8
2017-May-02 18:30N 29°38' W 094°58'612.6
2017-May-02 18:00N 29°32' W 094°54'714.3
2017-May-02 17:30N 29°26' W 094°50'714.1
2017-May-02 17:00N 29°21' W 094°44'8 0.5
2017-May-02 01:35N 29°19' W 094°35'0 0.2
2017-May-02 01:29N 29°19' W 094°35'  

Dump ship's entire track history